sensor_id;sensor_type;location;lat;lon;timestamp;temperature;humidity
10192;DHT22;17580;50.850;4.504;2022-11-15T00:01:36;11.60;99.90
10192;DHT22;17580;50.850;4.504;2022-11-15T00:04:04;11.60;99.90
10192;DHT22;17580;50.850;4.504;2022-11-15T00:06:31;11.60;99.90
10192;DHT22;17580;50.850;4.504;2022-11-15T00:08:59;11.60;99.90
10192;DHT22;17580;50.850;4.504;2022-11-15T00:11:26;11.70;99.90
10192;DHT22;17580;50.850;4.504;2022-11-15T00:13:56;11.70;99.90
10192;DHT22;17580;50.850;4.504;2022-11-15T00:16:24;11.70;99.90
10192;DHT22;17580;50.850;4.504;2022-11-15T00:18:51;11.80;99.90
10192;DHT22;17580;50.850;4.504;2022-11-15T00:21:18;11.80;99.90
10192;DHT22;17580;50.850;4.504;2022-11-15T00:23:45;11.80;99.90
10192;DHT22;17580;50.850;4.504;2022-11-15T00:26:13;11.80;99.90
10192;DHT22;17580;50.850;4.504;2022-11-15T00:28:41;11.80;99.90
10192;DHT22;17580;50.850;4.504;2022-11-15T00:31:12;11.80;99.90
10192;DHT22;17580;50.850;4.504;2022-11-15T00:33:40;11.90;99.90
10192;DHT22;17580;50.850;4.504;2022-11-15T00:36:09;11.90;99.90
10192;DHT22;17580;50.850;4.504;2022-11-15T00:38:38;11.90;99.90
10192;DHT22;17580;50.850;4.504;2022-11-15T00:41:07;11.90;99.90
10192;DHT22;17580;50.850;4.504;2022-11-15T00:43:34;11.90;99.90
10192;DHT22;17580;50.850;4.504;2022-11-15T00:46:01;11.90;99.90
10192;DHT22;17580;50.850;4.504;2022-11-15T00:48:30;11.90;99.90
10192;DHT22;17580;50.850;4.504;2022-11-15T00:50:57;11.90;99.90
10192;DHT22;17580;50.850;4.504;2022-11-15T00:53:24;12.00;99.90
10192;DHT22;17580;50.850;4.504;2022-11-15T00:55:51;12.00;99.90
10192;DHT22;17580;50.850;4.504;2022-11-15T00:58:18;12.00;99.90
10192;DHT22;17580;50.850;4.504;2022-11-15T01:00:45;12.00;99.90
10192;DHT22;17580;50.850;4.504;2022-11-15T01:03:12;12.00;99.90
10192;DHT22;17580;50.850;4.504;2022-11-15T01:05:40;12.00;99.90
10192;DHT22;17580;50.850;4.504;2022-11-15T01:08:12;12.00;99.90
10192;DHT22;17580;50.850;4.504;2022-11-15T01:10:39;12.00;99.90
10192;DHT22;17580;50.850;4.504;2022-11-15T01:13:06;12.00;99.90
10192;DHT22;17580;50.850;4.504;2022-11-15T01:15:33;12.10;99.90
10192;DHT22;17580;50.850;4.504;2022-11-15T01:18:00;12.00;99.90
10192;DHT22;17580;50.850;4.504;2022-11-15T01:20:27;12.00;99.90
10192;DHT22;17580;50.850;4.504;2022-11-15T01:22:55;12.00;99.90
10192;DHT22;17580;50.850;4.504;2022-11-15T01:25:22;12.00;99.90
10192;DHT22;17580;50.850;4.504;2022-11-15T01:27:49;12.10;99.90
10192;DHT22;17580;50.850;4.504;2022-11-15T01:30:16;12.10;99.90
10192;DHT22;17580;50.850;4.504;2022-11-15T01:32:43;12.00;99.90
10192;DHT22;17580;50.850;4.504;2022-11-15T01:35:10;12.00;99.90
10192;DHT22;17580;50.850;4.504;2022-11-15T01:37:37;12.00;99.90
10192;DHT22;17580;50.850;4.504;2022-11-15T01:40:06;12.00;99.90
10192;DHT22;17580;50.850;4.504;2022-11-15T01:42:33;12.00;99.90
10192;DHT22;17580;50.850;4.504;2022-11-15T01:45:00;12.00;99.90
10192;DHT22;17580;50.850;4.504;2022-11-15T01:47:29;12.00;99.90
10192;DHT22;17580;50.850;4.504;2022-11-15T01:49:59;12.10;99.90
10192;DHT22;17580;50.850;4.504;2022-11-15T01:52:30;12.00;99.90
10192;DHT22;17580;50.850;4.504;2022-11-15T01:55:02;12.10;99.90
10192;DHT22;17580;50.850;4.504;2022-11-15T01:57:30;12.10;99.90
10192;DHT22;17580;50.850;4.504;2022-11-15T01:59:58;12.10;99.90
10192;DHT22;17580;50.850;4.504;2022-11-15T02:02:26;12.10;99.90
10192;DHT22;17580;50.850;4.504;2022-11-15T02:04:53;12.10;99.90
10192;DHT22;17580;50.850;4.504;2022-11-15T02:07:21;12.10;99.90
10192;DHT22;17580;50.850;4.504;2022-11-15T02:09:48;12.10;99.90
10192;DHT22;17580;50.850;4.504;2022-11-15T02:12:19;12.10;99.90
10192;DHT22;17580;50.850;4.504;2022-11-15T02:14:50;12.10;99.90
10192;DHT22;17580;50.850;4.504;2022-11-15T02:17:31;12.10;99.90
10192;DHT22;17580;50.850;4.504;2022-11-15T02:20:20;12.10;99.90
10192;DHT22;17580;50.850;4.504;2022-11-15T02:23:08;12.10;99.90
10192;DHT22;17580;50.850;4.504;2022-11-15T02:25:46;12.10;99.90
10192;DHT22;17580;50.850;4.504;2022-11-15T02:28:36;12.10;99.90
10192;DHT22;17580;50.850;4.504;2022-11-15T02:31:11;12.10;99.90
10192;DHT22;17580;50.850;4.504;2022-11-15T02:33:50;12.10;99.90
10192;DHT22;17580;50.850;4.504;2022-11-15T02:36:33;12.10;99.90
10192;DHT22;17580;50.850;4.504;2022-11-15T02:39:07;12.10;99.90
10192;DHT22;17580;50.850;4.504;2022-11-15T02:41:41;12.10;99.90
10192;DHT22;17580;50.850;4.504;2022-11-15T02:44:14;12.10;99.90
10192;DHT22;17580;50.850;4.504;2022-11-15T02:46:46;12.10;99.90
10192;DHT22;17580;50.850;4.504;2022-11-15T02:49:33;12.00;99.90
10192;DHT22;17580;50.850;4.504;2022-11-15T02:52:00;12.10;99.90
10192;DHT22;17580;50.850;4.504;2022-11-15T02:54:30;12.00;99.90
10192;DHT22;17580;50.850;4.504;2022-11-15T02:57:00;12.00;99.90
10192;DHT22;17580;50.850;4.504;2022-11-15T03:00:07;12.10;99.90
10192;DHT22;17580;50.850;4.504;2022-11-15T03:02:48;12.10;99.90
10192;DHT22;17580;50.850;4.504;2022-11-15T03:05:22;12.10;99.90
10192;DHT22;17580;50.850;4.504;2022-11-15T03:07:54;12.10;99.90
10192;DHT22;17580;50.850;4.504;2022-11-15T03:10:29;12.10;99.90
10192;DHT22;17580;50.850;4.504;2022-11-15T03:13:02;12.10;99.90
10192;DHT22;17580;50.850;4.504;2022-11-15T03:15:37;12.10;99.90
10192;DHT22;17580;50.850;4.504;2022-11-15T03:18:15;12.10;99.90
10192;DHT22;17580;50.850;4.504;2022-11-15T03:20:46;12.10;99.90
10192;DHT22;17580;50.850;4.504;2022-11-15T03:23:14;12.00;99.90
10192;DHT22;17580;50.850;4.504;2022-11-15T03:25:43;12.00;99.90
10192;DHT22;17580;50.850;4.504;2022-11-15T03:28:13;12.00;99.90
10192;DHT22;17580;50.850;4.504;2022-11-15T03:30:42;12.00;99.90
10192;DHT22;17580;50.850;4.504;2022-11-15T03:33:12;12.00;99.90
10192;DHT22;17580;50.850;4.504;2022-11-15T03:35:42;12.00;99.90
10192;DHT22;17580;50.850;4.504;2022-11-15T03:38:21;12.00;99.90
10192;DHT22;17580;50.850;4.504;2022-11-15T03:40:53;12.00;99.90
10192;DHT22;17580;50.850;4.504;2022-11-15T03:43:26;11.90;99.90
10192;DHT22;17580;50.850;4.504;2022-11-15T03:45:58;11.90;99.90
10192;DHT22;17580;50.850;4.504;2022-11-15T03:48:30;11.90;99.90
10192;DHT22;17580;50.850;4.504;2022-11-15T03:51:00;11.90;99.90
10192;DHT22;17580;50.850;4.504;2022-11-15T03:53:28;11.90;99.90
10192;DHT22;17580;50.850;4.504;2022-11-15T03:55:56;11.90;99.90
10192;DHT22;17580;50.850;4.504;2022-11-15T03:58:23;11.80;99.90
10192;DHT22;17580;50.850;4.504;2022-11-15T04:00:50;11.80;99.90
10192;DHT22;17580;50.850;4.504;2022-11-15T04:03:17;11.80;99.90
10192;DHT22;17580;50.850;4.504;2022-11-15T04:05:45;11.80;99.90
10192;DHT22;17580;50.850;4.504;2022-11-15T04:08:12;11.80;99.90
10192;DHT22;17580;50.850;4.504;2022-11-15T04:10:39;11.80;99.90
10192;DHT22;17580;50.850;4.504;2022-11-15T04:13:06;11.80;99.90
10192;DHT22;17580;50.850;4.504;2022-11-15T04:15:33;11.80;99.90
10192;DHT22;17580;50.850;4.504;2022-11-15T04:18:00;11.80;99.90
10192;DHT22;17580;50.850;4.504;2022-11-15T04:20:28;11.80;99.90
10192;DHT22;17580;50.850;4.504;2022-11-15T04:23:17;11.70;99.90
10192;DHT22;17580;50.850;4.504;2022-11-15T04:26:04;11.70;99.90
10192;DHT22;17580;50.850;4.504;2022-11-15T04:28:31;11.70;99.90
10192;DHT22;17580;50.850;4.504;2022-11-15T04:30:58;11.70;99.90
10192;DHT22;17580;50.850;4.504;2022-11-15T04:33:25;11.60;99.90
10192;DHT22;17580;50.850;4.504;2022-11-15T04:35:52;11.60;99.90
10192;DHT22;17580;50.850;4.504;2022-11-15T04:38:38;11.60;99.90
10192;DHT22;17580;50.850;4.504;2022-11-15T04:41:05;11.60;99.90
10192;DHT22;17580;50.850;4.504;2022-11-15T04:43:32;11.60;99.90
10192;DHT22;17580;50.850;4.504;2022-11-15T04:45:59;11.60;99.90
10192;DHT22;17580;50.850;4.504;2022-11-15T04:48:26;11.50;99.90
10192;DHT22;17580;50.850;4.504;2022-11-15T04:50:52;11.50;99.90
10192;DHT22;17580;50.850;4.504;2022-11-15T04:53:19;11.40;99.90
10192;DHT22;17580;50.850;4.504;2022-11-15T04:55:48;11.40;99.90
10192;DHT22;17580;50.850;4.504;2022-11-15T04:58:15;11.30;99.90
10192;DHT22;17580;50.850;4.504;2022-11-15T05:00:42;11.30;99.90
10192;DHT22;17580;50.850;4.504;2022-11-15T05:03:09;11.30;99.90
10192;DHT22;17580;50.850;4.504;2022-11-15T05:05:54;11.30;99.90
10192;DHT22;17580;50.850;4.504;2022-11-15T05:08:21;11.20;99.90
10192;DHT22;17580;50.850;4.504;2022-11-15T05:10:49;11.20;99.90
10192;DHT22;17580;50.850;4.504;2022-11-15T05:13:16;11.20;99.90
10192;DHT22;17580;50.850;4.504;2022-11-15T05:15:43;11.20;99.90
10192;DHT22;17580;50.850;4.504;2022-11-15T05:18:10;11.20;99.90
10192;DHT22;17580;50.850;4.504;2022-11-15T05:20:37;11.20;99.90
10192;DHT22;17580;50.850;4.504;2022-11-15T05:23:04;11.20;99.90
10192;DHT22;17580;50.850;4.504;2022-11-15T05:25:31;11.10;99.90
10192;DHT22;17580;50.850;4.504;2022-11-15T05:27:59;11.10;99.90
10192;DHT22;17580;50.850;4.504;2022-11-15T05:30:26;11.10;99.90
10192;DHT22;17580;50.850;4.504;2022-11-15T05:32:53;11.10;99.90
10192;DHT22;17580;50.850;4.504;2022-11-15T05:35:26;11.10;99.90
10192;DHT22;17580;50.850;4.504;2022-11-15T05:37:56;11.10;99.90
10192;DHT22;17580;50.850;4.504;2022-11-15T05:40:23;11.10;99.90
10192;DHT22;17580;50.850;4.504;2022-11-15T05:42:50;11.00;99.90
10192;DHT22;17580;50.850;4.504;2022-11-15T05:45:19;11.00;99.90
10192;DHT22;17580;50.850;4.504;2022-11-15T05:47:47;11.00;99.90
10192;DHT22;17580;50.850;4.504;2022-11-15T05:50:17;10.90;99.90
10192;DHT22;17580;50.850;4.504;2022-11-15T05:52:46;10.90;99.90
10192;DHT22;17580;50.850;4.504;2022-11-15T05:55:14;10.90;99.90
10192;DHT22;17580;50.850;4.504;2022-11-15T05:57:41;10.80;99.90
10192;DHT22;17580;50.850;4.504;2022-11-15T06:00:09;10.80;99.90
10192;DHT22;17580;50.850;4.504;2022-11-15T06:02:38;10.70;99.90
10192;DHT22;17580;50.850;4.504;2022-11-15T06:05:06;10.60;99.90
10192;DHT22;17580;50.850;4.504;2022-11-15T06:07:33;10.70;99.90
10192;DHT22;17580;50.850;4.504;2022-11-15T06:10:00;10.80;99.90
10192;DHT22;17580;50.850;4.504;2022-11-15T06:12:27;10.80;99.90
10192;DHT22;17580;50.850;4.504;2022-11-15T06:14:54;10.70;99.90
10192;DHT22;17580;50.850;4.504;2022-11-15T06:17:21;10.70;99.90
10192;DHT22;17580;50.850;4.504;2022-11-15T06:19:49;10.70;99.90
10192;DHT22;17580;50.850;4.504;2022-11-15T06:22:16;10.60;99.90
10192;DHT22;17580;50.850;4.504;2022-11-15T06:24:43;10.50;99.90
10192;DHT22;17580;50.850;4.504;2022-11-15T06:27:10;10.50;99.90
10192;DHT22;17580;50.850;4.504;2022-11-15T06:29:37;10.40;99.90
10192;DHT22;17580;50.850;4.504;2022-11-15T06:32:04;10.40;99.90
10192;DHT22;17580;50.850;4.504;2022-11-15T06:34:31;10.30;99.90
10192;DHT22;17580;50.850;4.504;2022-11-15T06:37:00;10.30;99.90
10192;DHT22;17580;50.850;4.504;2022-11-15T06:39:27;10.30;99.90
10192;DHT22;17580;50.850;4.504;2022-11-15T06:41:54;10.20;99.90
10192;DHT22;17580;50.850;4.504;2022-11-15T06:44:21;10.20;99.90
10192;DHT22;17580;50.850;4.504;2022-11-15T06:46:47;10.20;99.90
10192;DHT22;17580;50.850;4.504;2022-11-15T06:49:14;10.10;99.90
10192;DHT22;17580;50.850;4.504;2022-11-15T06:51:42;10.10;99.90
10192;DHT22;17580;50.850;4.504;2022-11-15T06:54:10;10.10;99.90
10192;DHT22;17580;50.850;4.504;2022-11-15T06:56:37;10.00;99.90
10192;DHT22;17580;50.850;4.504;2022-11-15T06:59:04;10.00;99.90
10192;DHT22;17580;50.850;4.504;2022-11-15T07:01:31;10.00;99.90
10192;DHT22;17580;50.850;4.504;2022-11-15T07:03:58;10.00;99.90
10192;DHT22;17580;50.850;4.504;2022-11-15T07:06:25;10.00;99.90
10192;DHT22;17580;50.850;4.504;2022-11-15T07:08:52;10.00;99.90
10192;DHT22;17580;50.850;4.504;2022-11-15T07:11:20;10.00;99.90
10192;DHT22;17580;50.850;4.504;2022-11-15T07:13:47;9.90;99.90
10192;DHT22;17580;50.850;4.504;2022-11-15T07:16:14;10.00;99.90
10192;DHT22;17580;50.850;4.504;2022-11-15T07:18:41;10.00;99.90
10192;DHT22;17580;50.850;4.504;2022-11-15T07:21:09;10.00;99.90
10192;DHT22;17580;50.850;4.504;2022-11-15T07:23:38;10.00;99.90
10192;DHT22;17580;50.850;4.504;2022-11-15T07:26:05;10.00;99.90
10192;DHT22;17580;50.850;4.504;2022-11-15T07:28:34;10.00;99.90
10192;DHT22;17580;50.850;4.504;2022-11-15T07:31:02;10.10;99.90
10192;DHT22;17580;50.850;4.504;2022-11-15T07:33:29;10.10;99.90
10192;DHT22;17580;50.850;4.504;2022-11-15T07:35:58;10.10;99.90
10192;DHT22;17580;50.850;4.504;2022-11-15T07:38:27;10.10;99.90
10192;DHT22;17580;50.850;4.504;2022-11-15T07:40:56;10.10;99.90
10192;DHT22;17580;50.850;4.504;2022-11-15T07:43:24;10.20;99.90
10192;DHT22;17580;50.850;4.504;2022-11-15T07:45:54;10.20;99.90
10192;DHT22;17580;50.850;4.504;2022-11-15T07:48:22;10.20;99.90
10192;DHT22;17580;50.850;4.504;2022-11-15T07:50:49;10.20;99.90
10192;DHT22;17580;50.850;4.504;2022-11-15T07:53:17;10.20;99.90
10192;DHT22;17580;50.850;4.504;2022-11-15T07:55:44;10.20;99.90
10192;DHT22;17580;50.850;4.504;2022-11-15T07:58:11;10.30;99.90
10192;DHT22;17580;50.850;4.504;2022-11-15T08:00:38;10.30;99.90
10192;DHT22;17580;50.850;4.504;2022-11-15T08:03:08;10.30;99.90
10192;DHT22;17580;50.850;4.504;2022-11-15T08:05:36;10.40;99.90
10192;DHT22;17580;50.850;4.504;2022-11-15T08:08:03;10.40;99.90
10192;DHT22;17580;50.850;4.504;2022-11-15T08:10:31;10.50;99.90
10192;DHT22;17580;50.850;4.504;2022-11-15T08:12:59;10.70;99.90
10192;DHT22;17580;50.850;4.504;2022-11-15T08:15:26;11.70;99.90
10192;DHT22;17580;50.850;4.504;2022-11-15T08:17:54;12.60;99.90
10192;DHT22;17580;50.850;4.504;2022-11-15T08:20:23;12.90;99.90
10192;DHT22;17580;50.850;4.504;2022-11-15T08:22:51;13.70;98.70
10192;DHT22;17580;50.850;4.504;2022-11-15T08:25:18;14.70;91.30
10192;DHT22;17580;50.850;4.504;2022-11-15T08:27:45;15.50;80.00
10192;DHT22;17580;50.850;4.504;2022-11-15T08:30:13;16.00;78.10
10192;DHT22;17580;50.850;4.504;2022-11-15T08:32:41;15.70;75.10
10192;DHT22;17580;50.850;4.504;2022-11-15T08:35:08;14.50;79.40
10192;DHT22;17580;50.850;4.504;2022-11-15T08:37:37;13.70;87.70
10192;DHT22;17580;50.850;4.504;2022-11-15T08:40:05;13.40;92.80
10192;DHT22;17580;50.850;4.504;2022-11-15T08:42:32;13.30;93.40
10192;DHT22;17580;50.850;4.504;2022-11-15T08:44:59;13.30;93.60
10192;DHT22;17580;50.850;4.504;2022-11-15T08:47:26;13.60;92.20
10192;DHT22;17580;50.850;4.504;2022-11-15T08:49:53;14.10;89.50
10192;DHT22;17580;50.850;4.504;2022-11-15T08:52:20;14.30;84.10
10192;DHT22;17580;50.850;4.504;2022-11-15T08:54:48;14.60;86.30
10192;DHT22;17580;50.850;4.504;2022-11-15T08:57:15;14.70;80.50
10192;DHT22;17580;50.850;4.504;2022-11-15T08:59:42;14.40;79.80
10192;DHT22;17580;50.850;4.504;2022-11-15T09:02:11;14.10;81.50
10192;DHT22;17580;50.850;4.504;2022-11-15T09:04:39;14.50;80.60
10192;DHT22;17580;50.850;4.504;2022-11-15T09:07:07;14.30;80.30
10192;DHT22;17580;50.850;4.504;2022-11-15T09:09:34;14.50;79.20
10192;DHT22;17580;50.850;4.504;2022-11-15T09:12:02;15.40;74.70
10192;DHT22;17580;50.850;4.504;2022-11-15T09:14:30;16.30;67.90
10192;DHT22;17580;50.850;4.504;2022-11-15T09:16:57;16.90;64.90
10192;DHT22;17580;50.850;4.504;2022-11-15T09:19:24;16.90;63.50
10192;DHT22;17580;50.850;4.504;2022-11-15T09:21:52;16.70;61.80
10192;DHT22;17580;50.850;4.504;2022-11-15T09:24:18;17.20;61.00
10192;DHT22;17580;50.850;4.504;2022-11-15T09:26:46;17.00;59.10
10192;DHT22;17580;50.850;4.504;2022-11-15T09:29:14;16.90;59.60
10192;DHT22;17580;50.850;4.504;2022-11-15T09:31:41;17.10;58.40
10192;DHT22;17580;50.850;4.504;2022-11-15T09:34:08;17.10;59.30
10192;DHT22;17580;50.850;4.504;2022-11-15T09:36:35;17.40;59.20
10192;DHT22;17580;50.850;4.504;2022-11-15T09:39:02;17.20;58.40
10192;DHT22;17580;50.850;4.504;2022-11-15T09:41:48;17.30;58.10
10192;DHT22;17580;50.850;4.504;2022-11-15T09:44:38;17.30;59.00
10192;DHT22;17580;50.850;4.504;2022-11-15T09:47:30;17.20;57.90
10192;DHT22;17580;50.850;4.504;2022-11-15T09:50:09;16.80;59.60
10192;DHT22;17580;50.850;4.504;2022-11-15T09:52:37;16.70;59.00
10192;DHT22;17580;50.850;4.504;2022-11-15T09:55:09;16.30;59.40
10192;DHT22;17580;50.850;4.504;2022-11-15T09:57:41;16.60;61.40
10192;DHT22;17580;50.850;4.504;2022-11-15T10:00:21;17.00;59.20
10192;DHT22;17580;50.850;4.504;2022-11-15T10:03:03;16.50;59.90
10192;DHT22;17580;50.850;4.504;2022-11-15T10:05:32;16.30;59.40
10192;DHT22;17580;50.850;4.504;2022-11-15T10:08:11;16.20;60.20
10192;DHT22;17580;50.850;4.504;2022-11-15T10:10:42;16.00;59.30
10192;DHT22;17580;50.850;4.504;2022-11-15T10:13:15;15.80;61.90
10192;DHT22;17580;50.850;4.504;2022-11-15T10:15:46;15.60;62.00
10192;DHT22;17580;50.850;4.504;2022-11-15T10:18:16;15.30;62.60
10192;DHT22;17580;50.850;4.504;2022-11-15T10:20:48;15.60;62.40
10192;DHT22;17580;50.850;4.504;2022-11-15T10:23:18;15.50;63.30
10192;DHT22;17580;50.850;4.504;2022-11-15T10:25:46;15.50;63.40
10192;DHT22;17580;50.850;4.504;2022-11-15T10:28:16;15.50;61.50
10192;DHT22;17580;50.850;4.504;2022-11-15T10:30:48;15.60;61.60
10192;DHT22;17580;50.850;4.504;2022-11-15T10:33:29;16.00;60.10
10192;DHT22;17580;50.850;4.504;2022-11-15T10:36:21;16.20;59.50
10192;DHT22;17580;50.850;4.504;2022-11-15T10:38:57;17.10;59.00
10192;DHT22;17580;50.850;4.504;2022-11-15T10:41:37;17.30;55.70
10192;DHT22;17580;50.850;4.504;2022-11-15T10:44:26;17.10;56.50
10192;DHT22;17580;50.850;4.504;2022-11-15T10:47:25;17.50;54.70
10192;DHT22;17580;50.850;4.504;2022-11-15T10:49:58;17.50;54.80
10192;DHT22;17580;50.850;4.504;2022-11-15T10:52:25;16.80;56.40
10192;DHT22;17580;50.850;4.504;2022-11-15T10:54:56;15.90;58.30
10192;DHT22;17580;50.850;4.504;2022-11-15T10:57:26;15.50;59.30
10192;DHT22;17580;50.850;4.504;2022-11-15T10:59:56;15.10;61.00
10192;DHT22;17580;50.850;4.504;2022-11-15T11:02:31;14.70;62.80
10192;DHT22;17580;50.850;4.504;2022-11-15T11:04:58;14.20;64.40
10192;DHT22;17580;50.850;4.504;2022-11-15T11:07:28;14.20;66.60
10192;DHT22;17580;50.850;4.504;2022-11-15T11:10:01;13.90;66.20
10192;DHT22;17580;50.850;4.504;2022-11-15T11:12:30;13.90;67.20
10192;DHT22;17580;50.850;4.504;2022-11-15T11:14:58;14.00;67.30
10192;DHT22;17580;50.850;4.504;2022-11-15T11:17:36;14.10;69.20
10192;DHT22;17580;50.850;4.504;2022-11-15T11:20:14;13.90;70.10
10192;DHT22;17580;50.850;4.504;2022-11-15T11:22:54;14.00;68.10
10192;DHT22;17580;50.850;4.504;2022-11-15T11:25:30;14.00;69.10
10192;DHT22;17580;50.850;4.504;2022-11-15T11:28:26;14.10;67.80
10192;DHT22;17580;50.850;4.504;2022-11-15T11:31:07;14.40;67.70
10192;DHT22;17580;50.850;4.504;2022-11-15T11:33:44;14.70;66.10
10192;DHT22;17580;50.850;4.504;2022-11-15T11:36:21;14.80;66.40
10192;DHT22;17580;50.850;4.504;2022-11-15T11:38:56;14.80;67.30
10192;DHT22;17580;50.850;4.504;2022-11-15T11:41:43;14.90;65.00
10192;DHT22;17580;50.850;4.504;2022-11-15T11:44:23;14.80;66.10
10192;DHT22;17580;50.850;4.504;2022-11-15T11:46:55;14.40;66.40
10192;DHT22;17580;50.850;4.504;2022-11-15T11:49:30;14.30;67.60
10192;DHT22;17580;50.850;4.504;2022-11-15T11:52:02;14.10;69.20
10192;DHT22;17580;50.850;4.504;2022-11-15T11:54:36;14.10;69.40
10192;DHT22;17580;50.850;4.504;2022-11-15T11:57:10;13.90;69.80
10192;DHT22;17580;50.850;4.504;2022-11-15T11:59:43;13.80;71.00
10192;DHT22;17580;50.850;4.504;2022-11-15T12:02:16;13.70;72.10
10192;DHT22;17580;50.850;4.504;2022-11-15T12:04:49;13.70;72.80
10192;DHT22;17580;50.850;4.504;2022-11-15T12:07:21;13.70;73.80
10192;DHT22;17580;50.850;4.504;2022-11-15T12:09:53;13.70;74.00
10192;DHT22;17580;50.850;4.504;2022-11-15T12:12:27;13.70;73.80
10192;DHT22;17580;50.850;4.504;2022-11-15T12:15:00;13.60;74.70
10192;DHT22;17580;50.850;4.504;2022-11-15T12:17:30;13.50;75.70
10192;DHT22;17580;50.850;4.504;2022-11-15T12:20:02;13.50;77.50
10192;DHT22;17580;50.850;4.504;2022-11-15T12:22:38;13.50;78.00
10192;DHT22;17580;50.850;4.504;2022-11-15T12:25:13;13.50;78.80
10192;DHT22;17580;50.850;4.504;2022-11-15T12:27:44;13.50;79.70
10192;DHT22;17580;50.850;4.504;2022-11-15T12:30:14;13.50;80.20
10192;DHT22;17580;50.850;4.504;2022-11-15T12:32:50;13.60;81.40
10192;DHT22;17580;50.850;4.504;2022-11-15T12:35:25;13.60;81.50
10192;DHT22;17580;50.850;4.504;2022-11-15T12:37:54;13.50;83.20
10192;DHT22;17580;50.850;4.504;2022-11-15T12:40:26;13.60;83.10
10192;DHT22;17580;50.850;4.504;2022-11-15T12:45:42;13.50;84.40
10192;DHT22;17580;50.850;4.504;2022-11-15T12:55:02;13.50;88.70
10192;DHT22;17580;50.850;4.504;2022-11-15T12:57:49;13.50;87.80
10192;DHT22;17580;50.850;4.504;2022-11-15T13:00:43;13.60;88.60
10192;DHT22;17580;50.850;4.504;2022-11-15T13:03:25;13.70;87.70
10192;DHT22;17580;50.850;4.504;2022-11-15T13:08:46;13.80;89.30
10192;DHT22;17580;50.850;4.504;2022-11-15T13:11:46;13.90;88.50
10192;DHT22;17580;50.850;4.504;2022-11-15T13:17:29;13.90;90.00
10192;DHT22;17580;50.850;4.504;2022-11-15T13:20:20;13.80;90.00
10192;DHT22;17580;50.850;4.504;2022-11-15T13:22:49;13.70;90.70
10192;DHT22;17580;50.850;4.504;2022-11-15T13:28:22;13.60;91.20
10192;DHT22;17580;50.850;4.504;2022-11-15T13:30:51;13.60;92.10
10192;DHT22;17580;50.850;4.504;2022-11-15T13:33:22;13.60;92.90
10192;DHT22;17580;50.850;4.504;2022-11-15T13:35:53;13.60;93.50
10192;DHT22;17580;50.850;4.504;2022-11-15T13:38:26;13.60;94.00
10192;DHT22;17580;50.850;4.504;2022-11-15T13:40:54;13.60;94.00
10192;DHT22;17580;50.850;4.504;2022-11-15T13:43:29;13.60;94.00
10192;DHT22;17580;50.850;4.504;2022-11-15T13:46:05;13.60;94.40
10192;DHT22;17580;50.850;4.504;2022-11-15T13:48:33;13.60;93.80
10192;DHT22;17580;50.850;4.504;2022-11-15T13:51:01;13.60;94.30
10192;DHT22;17580;50.850;4.504;2022-11-15T13:53:30;13.50;94.30
10192;DHT22;17580;50.850;4.504;2022-11-15T13:55:58;13.50;95.80
10192;DHT22;17580;50.850;4.504;2022-11-15T13:58:27;13.50;95.60
10192;DHT22;17580;50.850;4.504;2022-11-15T14:00:59;13.60;95.70
10192;DHT22;17580;50.850;4.504;2022-11-15T14:03:28;13.60;96.00
10192;DHT22;17580;50.850;4.504;2022-11-15T14:06:04;13.60;95.30
10192;DHT22;17580;50.850;4.504;2022-11-15T14:08:33;13.60;95.50
10192;DHT22;17580;50.850;4.504;2022-11-15T14:11:09;13.60;96.60
10192;DHT22;17580;50.850;4.504;2022-11-15T14:13:38;13.60;96.50
10192;DHT22;17580;50.850;4.504;2022-11-15T14:16:16;13.60;96.40
10192;DHT22;17580;50.850;4.504;2022-11-15T14:18:46;13.50;96.90
10192;DHT22;17580;50.850;4.504;2022-11-15T14:21:13;13.50;98.00
10192;DHT22;17580;50.850;4.504;2022-11-15T14:23:40;13.50;99.90
10192;DHT22;17580;50.850;4.504;2022-11-15T14:26:25;13.40;99.90
10192;DHT22;17580;50.850;4.504;2022-11-15T14:28:53;13.20;99.90
10192;DHT22;17580;50.850;4.504;2022-11-15T14:31:21;13.20;99.90
10192;DHT22;17580;50.850;4.504;2022-11-15T14:33:48;13.20;99.90
10192;DHT22;17580;50.850;4.504;2022-11-15T14:36:16;13.20;99.90
10192;DHT22;17580;50.850;4.504;2022-11-15T14:38:44;13.20;99.90
10192;DHT22;17580;50.850;4.504;2022-11-15T14:41:18;13.20;99.90
10192;DHT22;17580;50.850;4.504;2022-11-15T14:43:46;13.20;99.90
10192;DHT22;17580;50.850;4.504;2022-11-15T14:46:14;13.20;99.90
10192;DHT22;17580;50.850;4.504;2022-11-15T14:48:41;13.20;99.90
10192;DHT22;17580;50.850;4.504;2022-11-15T14:51:12;13.10;99.90
10192;DHT22;17580;50.850;4.504;2022-11-15T14:53:40;13.10;99.90
10192;DHT22;17580;50.850;4.504;2022-11-15T14:56:07;13.10;99.90
10192;DHT22;17580;50.850;4.504;2022-11-15T14:58:34;13.10;99.90
10192;DHT22;17580;50.850;4.504;2022-11-15T15:01:03;13.10;99.90
10192;DHT22;17580;50.850;4.504;2022-11-15T15:03:37;13.10;99.90
10192;DHT22;17580;50.850;4.504;2022-11-15T15:06:05;13.10;99.90
10192;DHT22;17580;50.850;4.504;2022-11-15T15:08:32;13.10;99.90
10192;DHT22;17580;50.850;4.504;2022-11-15T15:10:58;13.00;99.90
10192;DHT22;17580;50.850;4.504;2022-11-15T15:13:26;13.00;99.90
10192;DHT22;17580;50.850;4.504;2022-11-15T15:15:54;13.00;99.90
10192;DHT22;17580;50.850;4.504;2022-11-15T15:18:21;13.00;99.90
10192;DHT22;17580;50.850;4.504;2022-11-15T15:20:54;12.80;99.90
10192;DHT22;17580;50.850;4.504;2022-11-15T15:23:22;12.80;99.90
10192;DHT22;17580;50.850;4.504;2022-11-15T15:25:51;12.60;99.90
10192;DHT22;17580;50.850;4.504;2022-11-15T15:28:18;12.60;99.90
10192;DHT22;17580;50.850;4.504;2022-11-15T15:30:45;12.50;99.90
10192;DHT22;17580;50.850;4.504;2022-11-15T15:33:12;12.60;99.90
10192;DHT22;17580;50.850;4.504;2022-11-15T15:35:39;12.50;99.90
10192;DHT22;17580;50.850;4.504;2022-11-15T15:38:10;12.50;99.90
10192;DHT22;17580;50.850;4.504;2022-11-15T15:40:37;12.50;99.90
10192;DHT22;17580;50.850;4.504;2022-11-15T15:43:05;12.40;99.90
10192;DHT22;17580;50.850;4.504;2022-11-15T15:45:35;12.30;99.90
10192;DHT22;17580;50.850;4.504;2022-11-15T15:48:03;12.30;99.90
10192;DHT22;17580;50.850;4.504;2022-11-15T15:50:33;12.20;99.90
10192;DHT22;17580;50.850;4.504;2022-11-15T15:53:03;12.20;99.90
10192;DHT22;17580;50.850;4.504;2022-11-15T15:55:31;12.10;99.90
10192;DHT22;17580;50.850;4.504;2022-11-15T15:57:58;12.10;99.90
10192;DHT22;17580;50.850;4.504;2022-11-15T16:00:25;12.00;99.90
10192;DHT22;17580;50.850;4.504;2022-11-15T16:02:53;12.00;99.90
10192;DHT22;17580;50.850;4.504;2022-11-15T16:05:21;12.00;99.90
10192;DHT22;17580;50.850;4.504;2022-11-15T16:07:48;11.90;99.90
10192;DHT22;17580;50.850;4.504;2022-11-15T16:10:22;11.90;99.90